sensor_id;sensor_type;location;lat;lon;timestamp;P1;durP1;ratioP1;P2;durP2;ratioP2
18649;SDS011;9454;53.516;10.478;2024-01-16T00:07:33;5.65;;;1.13;;
18649;SDS011;9454;53.516;10.478;2024-01-16T00:10:37;2.92;;;0.88;;
18649;SDS011;9454;53.516;10.478;2024-01-16T00:13:40;4.78;;;0.90;;
18649;SDS011;9454;53.516;10.478;2024-01-16T00:16:44;1.67;;;0.90;;
18649;SDS011;9454;53.516;10.478;2024-01-16T00:19:48;3.25;;;0.90;;
18649;SDS011;9454;53.516;10.478;2024-01-16T00:22:53;2.70;;;1.08;;
18649;SDS011;9454;53.516;10.478;2024-01-16T00:25:57;3.42;;;1.00;;
18649;SDS011;9454;53.516;10.478;2024-01-16T00:29:01;5.25;;;1.00;;
18649;SDS011;9454;53.516;10.478;2024-01-16T00:32:05;3.45;;;1.00;;
18649;SDS011;9454;53.516;10.478;2024-01-16T00:35:08;4.05;;;1.60;;
18649;SDS011;9454;53.516;10.478;2024-01-16T00:38:13;1.63;;;1.08;;
18649;SDS011;9454;53.516;10.478;2024-01-16T00:41:17;4.20;;;1.42;;
18649;SDS011;9454;53.516;10.478;2024-01-16T00:44:21;4.35;;;1.60;;
18649;SDS011;9454;53.516;10.478;2024-01-16T00:47:30;3.35;;;1.50;;
18649;SDS011;9454;53.516;10.478;2024-01-16T00:50:36;3.55;;;1.65;;
18649;SDS011;9454;53.516;10.478;2024-01-16T00:53:41;3.47;;;1.60;;
18649;SDS011;9454;53.516;10.478;2024-01-16T00:56:45;2.70;;;1.52;;
18649;SDS011;9454;53.516;10.478;2024-01-16T00:59:52;3.25;;;1.83;;
18649;SDS011;9454;53.516;10.478;2024-01-16T01:03:01;2.80;;;1.88;;
18649;SDS011;9454;53.516;10.478;2024-01-16T01:06:17;4.43;;;1.95;;
18649;SDS011;9454;53.516;10.478;2024-01-16T01:09:22;6.78;;;1.63;;
18649;SDS011;9454;53.516;10.478;2024-01-16T01:12:31;4.00;;;1.95;;
18649;SDS011;9454;53.516;10.478;2024-01-16T01:15:35;2.72;;;1.88;;
18649;SDS011;9454;53.516;10.478;2024-01-16T01:18:38;4.13;;;1.75;;
18649;SDS011;9454;53.516;10.478;2024-01-16T01:21:42;4.78;;;1.98;;
18649;SDS011;9454;53.516;10.478;2024-01-16T01:24:47;3.90;;;1.95;;
18649;SDS011;9454;53.516;10.478;2024-01-16T01:27:51;2.15;;;1.40;;
18649;SDS011;9454;53.516;10.478;2024-01-16T01:30:54;6.10;;;2.08;;
18649;SDS011;9454;53.516;10.478;2024-01-16T01:33:58;6.55;;;1.83;;
18649;SDS011;9454;53.516;10.478;2024-01-16T01:37:02;2.92;;;1.60;;
18649;SDS011;9454;53.516;10.478;2024-01-16T01:40:08;5.93;;;1.60;;
18649;SDS011;9454;53.516;10.478;2024-01-16T01:43:17;3.72;;;1.70;;
18649;SDS011;9454;53.516;10.478;2024-01-16T01:46:21;4.25;;;1.80;;
18649;SDS011;9454;53.516;10.478;2024-01-16T01:49:25;2.05;;;1.40;;
18649;SDS011;9454;53.516;10.478;2024-01-16T01:52:33;1.75;;;1.45;;
18649;SDS011;9454;53.516;10.478;2024-01-16T01:55:39;2.70;;;1.98;;
18649;SDS011;9454;53.516;10.478;2024-01-16T01:58:46;3.17;;;1.52;;
18649;SDS011;9454;53.516;10.478;2024-01-16T02:01:50;7.05;;;1.90;;
18649;SDS011;9454;53.516;10.478;2024-01-16T02:04:58;1.75;;;1.45;;
18649;SDS011;9454;53.516;10.478;2024-01-16T02:08:02;3.13;;;1.55;;
18649;SDS011;9454;53.516;10.478;2024-01-16T02:11:09;2.45;;;1.60;;
18649;SDS011;9454;53.516;10.478;2024-01-16T02:14:13;2.45;;;1.60;;
18649;SDS011;9454;53.516;10.478;2024-01-16T02:17:17;5.40;;;2.05;;
18649;SDS011;9454;53.516;10.478;2024-01-16T02:20:21;2.30;;;1.55;;
18649;SDS011;9454;53.516;10.478;2024-01-16T02:23:26;6.53;;;1.80;;
18649;SDS011;9454;53.516;10.478;2024-01-16T02:26:30;2.30;;;1.50;;
18649;SDS011;9454;53.516;10.478;2024-01-16T02:29:33;6.22;;;1.30;;
18649;SDS011;9454;53.516;10.478;2024-01-16T02:32:41;1.77;;;1.33;;
18649;SDS011;9454;53.516;10.478;2024-01-16T02:35:45;8.32;;;1.42;;
18649;SDS011;9454;53.516;10.478;2024-01-16T02:38:50;6.43;;;1.88;;
18649;SDS011;9454;53.516;10.478;2024-01-16T02:41:55;2.42;;;1.77;;
18649;SDS011;9454;53.516;10.478;2024-01-16T02:45:05;3.38;;;1.65;;
18649;SDS011;9454;53.516;10.478;2024-01-16T02:48:10;1.67;;;1.42;;
18649;SDS011;9454;53.516;10.478;2024-01-16T02:51:14;4.65;;;1.50;;
18649;SDS011;9454;53.516;10.478;2024-01-16T02:54:19;5.00;;;1.60;;
18649;SDS011;9454;53.516;10.478;2024-01-16T02:57:23;4.50;;;1.50;;
18649;SDS011;9454;53.516;10.478;2024-01-16T03:00:26;3.13;;;1.52;;
18649;SDS011;9454;53.516;10.478;2024-01-16T03:03:30;4.85;;;1.70;;
18649;SDS011;9454;53.516;10.478;2024-01-16T03:06:34;7.10;;;1.75;;
18649;SDS011;9454;53.516;10.478;2024-01-16T03:09:39;6.90;;;1.95;;
18649;SDS011;9454;53.516;10.478;2024-01-16T03:12:43;3.92;;;2.10;;
18649;SDS011;9454;53.516;10.478;2024-01-16T03:15:46;2.78;;;2.15;;
18649;SDS011;9454;53.516;10.478;2024-01-16T03:18:50;2.78;;;1.70;;
18649;SDS011;9454;53.516;10.478;2024-01-16T03:21:54;3.03;;;2.10;;
18649;SDS011;9454;53.516;10.478;2024-01-16T03:24:59;2.83;;;1.83;;
18649;SDS011;9454;53.516;10.478;2024-01-16T03:28:06;4.13;;;2.20;;
18649;SDS011;9454;53.516;10.478;2024-01-16T03:31:12;4.80;;;2.30;;
18649;SDS011;9454;53.516;10.478;2024-01-16T03:34:16;5.28;;;1.70;;
18649;SDS011;9454;53.516;10.478;2024-01-16T03:37:20;5.57;;;1.98;;
18649;SDS011;9454;53.516;10.478;2024-01-16T03:40:25;6.32;;;1.92;;
18649;SDS011;9454;53.516;10.478;2024-01-16T03:43:35;3.65;;;1.73;;
18649;SDS011;9454;53.516;10.478;2024-01-16T03:46:39;5.90;;;2.22;;
18649;SDS011;9454;53.516;10.478;2024-01-16T03:49:42;3.38;;;2.05;;
18649;SDS011;9454;53.516;10.478;2024-01-16T03:52:46;4.22;;;2.25;;
18649;SDS011;9454;53.516;10.478;2024-01-16T03:55:51;4.47;;;2.78;;
18649;SDS011;9454;53.516;10.478;2024-01-16T03:58:55;8.50;;;3.10;;
18649;SDS011;9454;53.516;10.478;2024-01-16T04:01:59;4.22;;;2.90;;
18649;SDS011;9454;53.516;10.478;2024-01-16T04:05:08;4.78;;;2.97;;
18649;SDS011;9454;53.516;10.478;2024-01-16T04:08:13;4.25;;;2.83;;
18649;SDS011;9454;53.516;10.478;2024-01-16T04:11:18;7.05;;;3.83;;
18649;SDS011;9454;53.516;10.478;2024-01-16T04:14:23;7.10;;;3.92;;
18649;SDS011;9454;53.516;10.478;2024-01-16T04:17:26;8.45;;;3.75;;
18649;SDS011;9454;53.516;10.478;2024-01-16T04:20:30;6.75;;;4.05;;
18649;SDS011;9454;53.516;10.478;2024-01-16T04:23:33;7.93;;;4.93;;
18649;SDS011;9454;53.516;10.478;2024-01-16T04:26:40;8.07;;;4.40;;
18649;SDS011;9454;53.516;10.478;2024-01-16T04:29:44;7.95;;;4.07;;
18649;SDS011;9454;53.516;10.478;2024-01-16T04:32:48;7.72;;;4.82;;
18649;SDS011;9454;53.516;10.478;2024-01-16T04:35:51;8.20;;;4.75;;
18649;SDS011;9454;53.516;10.478;2024-01-16T04:38:55;14.05;;;4.93;;
18649;SDS011;9454;53.516;10.478;2024-01-16T04:42:03;10.07;;;5.45;;
18649;SDS011;9454;53.516;10.478;2024-01-16T04:45:08;8.48;;;4.10;;
18649;SDS011;9454;53.516;10.478;2024-01-16T04:48:11;9.65;;;4.32;;
18649;SDS011;9454;53.516;10.478;2024-01-16T04:51:15;7.20;;;4.53;;
18649;SDS011;9454;53.516;10.478;2024-01-16T04:54:18;8.18;;;5.05;;
18649;SDS011;9454;53.516;10.478;2024-01-16T04:57:24;8.00;;;4.70;;
18649;SDS011;9454;53.516;10.478;2024-01-16T05:00:27;7.75;;;4.57;;
18649;SDS011;9454;53.516;10.478;2024-01-16T05:03:31;9.38;;;4.40;;
18649;SDS011;9454;53.516;10.478;2024-01-16T05:06:34;7.97;;;4.68;;
18649;SDS011;9454;53.516;10.478;2024-01-16T05:09:38;9.93;;;4.22;;
18649;SDS011;9454;53.516;10.478;2024-01-16T05:12:43;6.97;;;4.38;;
18649;SDS011;9454;53.516;10.478;2024-01-16T05:15:47;6.97;;;4.45;;
18649;SDS011;9454;53.516;10.478;2024-01-16T05:18:50;8.23;;;3.92;;
18649;SDS011;9454;53.516;10.478;2024-01-16T05:21:55;6.80;;;4.05;;
18649;SDS011;9454;53.516;10.478;2024-01-16T05:24:58;6.72;;;4.20;;
18649;SDS011;9454;53.516;10.478;2024-01-16T05:28:04;7.40;;;4.05;;
18649;SDS011;9454;53.516;10.478;2024-01-16T05:31:10;8.00;;;4.32;;
18649;SDS011;9454;53.516;10.478;2024-01-16T05:34:13;7.72;;;4.22;;
18649;SDS011;9454;53.516;10.478;2024-01-16T05:37:19;7.13;;;4.20;;
18649;SDS011;9454;53.516;10.478;2024-01-16T05:40:22;8.32;;;3.80;;
18649;SDS011;9454;53.516;10.478;2024-01-16T05:43:28;10.13;;;3.78;;
18649;SDS011;9454;53.516;10.478;2024-01-16T05:46:31;6.43;;;3.75;;
18649;SDS011;9454;53.516;10.478;2024-01-16T05:49:36;7.97;;;3.88;;
18649;SDS011;9454;53.516;10.478;2024-01-16T05:52:39;4.65;;;2.97;;
18649;SDS011;9454;53.516;10.478;2024-01-16T05:55:47;5.10;;;3.22;;
18649;SDS011;9454;53.516;10.478;2024-01-16T05:58:52;7.80;;;3.08;;
18649;SDS011;9454;53.516;10.478;2024-01-16T06:01:55;4.25;;;3.03;;
18649;SDS011;9454;53.516;10.478;2024-01-16T06:04:59;4.85;;;3.17;;
18649;SDS011;9454;53.516;10.478;2024-01-16T06:08:04;7.50;;;2.88;;
18649;SDS011;9454;53.516;10.478;2024-01-16T06:11:08;4.55;;;2.72;;
18649;SDS011;9454;53.516;10.478;2024-01-16T06:14:16;6.13;;;2.30;;
18649;SDS011;9454;53.516;10.478;2024-01-16T06:17:23;5.50;;;2.50;;
18649;SDS011;9454;53.516;10.478;2024-01-16T06:20:27;3.92;;;1.90;;
18649;SDS011;9454;53.516;10.478;2024-01-16T06:23:32;1.88;;;1.60;;
18649;SDS011;9454;53.516;10.478;2024-01-16T06:26:35;3.17;;;2.17;;
18649;SDS011;9454;53.516;10.478;2024-01-16T06:29:40;3.97;;;1.88;;
18649;SDS011;9454;53.516;10.478;2024-01-16T06:32:44;2.55;;;1.95;;
18649;SDS011;9454;53.516;10.478;2024-01-16T06:35:51;3.58;;;1.75;;
18649;SDS011;9454;53.516;10.478;2024-01-16T06:38:55;5.65;;;1.60;;
18649;SDS011;9454;53.516;10.478;2024-01-16T06:41:59;2.88;;;2.10;;
18649;SDS011;9454;53.516;10.478;2024-01-16T06:45:09;2.15;;;1.55;;
18649;SDS011;9454;53.516;10.478;2024-01-16T06:48:14;3.90;;;1.50;;
18649;SDS011;9454;53.516;10.478;2024-01-16T06:51:19;3.20;;;1.45;;
18649;SDS011;9454;53.516;10.478;2024-01-16T06:54:22;1.70;;;1.50;;
18649;SDS011;9454;53.516;10.478;2024-01-16T06:57:27;1.27;;;1.05;;
18649;SDS011;9454;53.516;10.478;2024-01-16T07:00:32;2.53;;;1.70;;
18649;SDS011;9454;53.516;10.478;2024-01-16T07:03:36;1.25;;;1.10;;
18649;SDS011;9454;53.516;10.478;2024-01-16T07:06:40;3.38;;;1.52;;
18649;SDS011;9454;53.516;10.478;2024-01-16T07:09:45;1.88;;;1.20;;
18649;SDS011;9454;53.516;10.478;2024-01-16T07:12:49;5.75;;;1.20;;
18649;SDS011;9454;53.516;10.478;2024-01-16T07:15:54;8.80;;;1.50;;
18649;SDS011;9454;53.516;10.478;2024-01-16T07:18:58;1.13;;;0.88;;
18649;SDS011;9454;53.516;10.478;2024-01-16T07:22:02;4.65;;;1.25;;
18649;SDS011;9454;53.516;10.478;2024-01-16T07:25:06;3.13;;;1.17;;
18649;SDS011;9454;53.516;10.478;2024-01-16T07:28:14;6.55;;;1.60;;
18649;SDS011;9454;53.516;10.478;2024-01-16T07:31:19;1.58;;;1.05;;
18649;SDS011;9454;53.516;10.478;2024-01-16T07:34:22;5.38;;;1.40;;
18649;SDS011;9454;53.516;10.478;2024-01-16T07:37:27;3.35;;;1.73;;
18649;SDS011;9454;53.516;10.478;2024-01-16T07:40:30;9.35;;;1.95;;
18649;SDS011;9454;53.516;10.478;2024-01-16T07:43:34;5.50;;;1.60;;
18649;SDS011;9454;53.516;10.478;2024-01-16T07:46:39;2.58;;;1.88;;
18649;SDS011;9454;53.516;10.478;2024-01-16T07:49:42;1.45;;;1.35;;
18649;SDS011;9454;53.516;10.478;2024-01-16T07:52:46;6.32;;;2.17;;
18649;SDS011;9454;53.516;10.478;2024-01-16T07:55:50;5.68;;;2.22;;
18649;SDS011;9454;53.516;10.478;2024-01-16T07:58:54;4.38;;;2.78;;
18649;SDS011;9454;53.516;10.478;2024-01-16T08:01:59;6.90;;;2.63;;
18649;SDS011;9454;53.516;10.478;2024-01-16T08:05:03;6.22;;;2.22;;
18649;SDS011;9454;53.516;10.478;2024-01-16T08:08:08;3.88;;;2.40;;
18649;SDS011;9454;53.516;10.478;2024-01-16T08:11:12;10.90;;;2.95;;
18649;SDS011;9454;53.516;10.478;2024-01-16T08:14:16;4.25;;;2.83;;
18649;SDS011;9454;53.516;10.478;2024-01-16T08:17:21;6.53;;;2.63;;
18649;SDS011;9454;53.516;10.478;2024-01-16T08:20:24;6.63;;;2.60;;
18649;SDS011;9454;53.516;10.478;2024-01-16T08:23:28;5.95;;;2.83;;
18649;SDS011;9454;53.516;10.478;2024-01-16T08:26:33;8.95;;;3.15;;
18649;SDS011;9454;53.516;10.478;2024-01-16T08:29:37;9.20;;;3.28;;
18649;SDS011;9454;53.516;10.478;2024-01-16T08:32:42;5.07;;;2.88;;
18649;SDS011;9454;53.516;10.478;2024-01-16T08:35:46;5.30;;;2.75;;
18649;SDS011;9454;53.516;10.478;2024-01-16T08:38:49;6.60;;;3.13;;
18649;SDS011;9454;53.516;10.478;2024-01-16T08:41:54;4.65;;;2.28;;
18649;SDS011;9454;53.516;10.478;2024-01-16T08:44:59;9.77;;;2.42;;
18649;SDS011;9454;53.516;10.478;2024-01-16T08:48:04;2.95;;;2.30;;
18649;SDS011;9454;53.516;10.478;2024-01-16T08:51:10;2.53;;;2.15;;
18649;SDS011;9454;53.516;10.478;2024-01-16T08:54:15;4.35;;;2.65;;
18649;SDS011;9454;53.516;10.478;2024-01-16T08:57:19;3.90;;;2.42;;
18649;SDS011;9454;53.516;10.478;2024-01-16T09:00:26;10.88;;;2.60;;
18649;SDS011;9454;53.516;10.478;2024-01-16T09:03:31;6.97;;;2.38;;
18649;SDS011;9454;53.516;10.478;2024-01-16T09:06:35;6.60;;;2.10;;
18649;SDS011;9454;53.516;10.478;2024-01-16T09:09:38;4.55;;;2.17;;
18649;SDS011;9454;53.516;10.478;2024-01-16T09:12:43;6.80;;;2.55;;
18649;SDS011;9454;53.516;10.478;2024-01-16T09:15:47;5.63;;;2.55;;
18649;SDS011;9454;53.516;10.478;2024-01-16T09:18:52;5.40;;;2.10;;
18649;SDS011;9454;53.516;10.478;2024-01-16T09:21:57;4.00;;;2.38;;
18649;SDS011;9454;53.516;10.478;2024-01-16T09:25:00;4.70;;;2.50;;
18649;SDS011;9454;53.516;10.478;2024-01-16T09:28:04;7.25;;;2.53;;
18649;SDS011;9454;53.516;10.478;2024-01-16T09:31:09;4.85;;;2.25;;
18649;SDS011;9454;53.516;10.478;2024-01-16T09:34:14;4.78;;;2.40;;
18649;SDS011;9454;53.516;10.478;2024-01-16T09:37:18;9.30;;;2.45;;
18649;SDS011;9454;53.516;10.478;2024-01-16T09:40:22;9.02;;;2.75;;
18649;SDS011;9454;53.516;10.478;2024-01-16T09:43:26;4.80;;;2.55;;
18649;SDS011;9454;53.516;10.478;2024-01-16T09:46:30;6.75;;;2.47;;
18649;SDS011;9454;53.516;10.478;2024-01-16T09:49:35;11.60;;;2.55;;
18649;SDS011;9454;53.516;10.478;2024-01-16T09:52:40;6.45;;;2.97;;
18649;SDS011;9454;53.516;10.478;2024-01-16T09:55:44;4.22;;;3.30;;
18649;SDS011;9454;53.516;10.478;2024-01-16T09:58:49;5.53;;;2.83;;
18649;SDS011;9454;53.516;10.478;2024-01-16T10:01:52;5.47;;;2.78;;
18649;SDS011;9454;53.516;10.478;2024-01-16T10:04:59;5.80;;;2.60;;
18649;SDS011;9454;53.516;10.478;2024-01-16T10:08:03;7.20;;;2.38;;
18649;SDS011;9454;53.516;10.478;2024-01-16T10:11:06;6.82;;;2.75;;
18649;SDS011;9454;53.516;10.478;2024-01-16T10:14:11;6.03;;;2.97;;
18649;SDS011;9454;53.516;10.478;2024-01-16T10:17:15;5.65;;;1.98;;
18649;SDS011;9454;53.516;10.478;2024-01-16T10:20:32;6.43;;;2.25;;
18649;SDS011;9454;53.516;10.478;2024-01-16T10:23:36;6.10;;;2.60;;
18649;SDS011;9454;53.516;10.478;2024-01-16T10:26:42;6.53;;;1.92;;
18649;SDS011;9454;53.516;10.478;2024-01-16T10:29:54;7.93;;;2.80;;
18649;SDS011;9454;53.516;10.478;2024-01-16T10:33:11;7.80;;;2.40;;
18649;SDS011;9454;53.516;10.478;2024-01-16T10:36:17;4.65;;;2.05;;
18649;SDS011;9454;53.516;10.478;2024-01-16T10:39:22;7.75;;;2.20;;
18649;SDS011;9454;53.516;10.478;2024-01-16T10:42:38;5.95;;;1.77;;
18649;SDS011;9454;53.516;10.478;2024-01-16T10:45:42;6.13;;;1.65;;
18649;SDS011;9454;53.516;10.478;2024-01-16T10:48:58;2.78;;;1.58;;
18649;SDS011;9454;53.516;10.478;2024-01-16T10:52:04;10.10;;;1.77;;
18649;SDS011;9454;53.516;10.478;2024-01-16T10:55:12;2.33;;;1.42;;
18649;SDS011;9454;53.516;10.478;2024-01-16T10:58:16;8.30;;;1.58;;
18649;SDS011;9454;53.516;10.478;2024-01-16T11:01:23;2.20;;;1.50;;
18649;SDS011;9454;53.516;10.478;2024-01-16T11:04:28;4.05;;;1.50;;
18649;SDS011;9454;53.516;10.478;2024-01-16T11:07:35;3.78;;;1.50;;
18649;SDS011;9454;53.516;10.478;2024-01-16T11:10:40;2.03;;;1.50;;
18649;SDS011;9454;53.516;10.478;2024-01-16T11:13:48;5.35;;;2.38;;
18649;SDS011;9454;53.516;10.478;2024-01-16T11:16:52;3.75;;;2.17;;
18649;SDS011;9454;53.516;10.478;2024-01-16T11:19:57;4.25;;;2.17;;
18649;SDS011;9454;53.516;10.478;2024-01-16T11:23:25;5.70;;;2.47;;
18649;SDS011;9454;53.516;10.478;2024-01-16T11:26:33;7.03;;;2.10;;
18649;SDS011;9454;53.516;10.478;2024-01-16T11:29:41;7.18;;;2.45;;
18649;SDS011;9454;53.516;10.478;2024-01-16T11:32:46;5.85;;;2.78;;
18649;SDS011;9454;53.516;10.478;2024-01-16T11:35:50;7.00;;;2.33;;
18649;SDS011;9454;53.516;10.478;2024-01-16T11:38:56;11.20;;;2.67;;
18649;SDS011;9454;53.516;10.478;2024-01-16T11:42:01;5.88;;;2.08;;
18649;SDS011;9454;53.516;10.478;2024-01-16T11:45:06;11.18;;;3.40;;
18649;SDS011;9454;53.516;10.478;2024-01-16T11:48:09;6.22;;;2.38;;
18649;SDS011;9454;53.516;10.478;2024-01-16T11:51:22;4.57;;;1.98;;
18649;SDS011;9454;53.516;10.478;2024-01-16T11:54:27;10.73;;;2.90;;
18649;SDS011;9454;53.516;10.478;2024-01-16T12:00:49;6.10;;;2.60;;
18649;SDS011;9454;53.516;10.478;2024-01-16T12:04:01;3.63;;;2.33;;
18649;SDS011;9454;53.516;10.478;2024-01-16T12:07:05;2.30;;;1.92;;
18649;SDS011;9454;53.516;10.478;2024-01-16T12:10:10;3.30;;;2.35;;
18649;SDS011;9454;53.516;10.478;2024-01-16T12:13:14;6.35;;;1.90;;
18649;SDS011;9454;53.516;10.478;2024-01-16T12:16:18;4.43;;;1.50;;
18649;SDS011;9454;53.516;10.478;2024-01-16T12:19:22;2.95;;;1.63;;
18649;SDS011;9454;53.516;10.478;2024-01-16T12:22:26;4.47;;;1.55;;
18649;SDS011;9454;53.516;10.478;2024-01-16T12:25:31;4.47;;;1.95;;
18649;SDS011;9454;53.516;10.478;2024-01-16T12:28:55;8.05;;;1.63;;
18649;SDS011;9454;53.516;10.478;2024-01-16T12:32:07;2.55;;;1.67;;
18649;SDS011;9454;53.516;10.478;2024-01-16T12:35:12;5.07;;;1.90;;
18649;SDS011;9454;53.516;10.478;2024-01-16T12:38:16;6.60;;;1.85;;
18649;SDS011;9454;53.516;10.478;2024-01-16T12:41:22;4.50;;;1.58;;
18649;SDS011;9454;53.516;10.478;2024-01-16T12:44:39;5.97;;;1.77;;
18649;SDS011;9454;53.516;10.478;2024-01-16T12:47:49;5.75;;;1.92;;
18649;SDS011;9454;53.516;10.478;2024-01-16T12:50:58;2.67;;;1.95;;
18649;SDS011;9454;53.516;10.478;2024-01-16T12:54:11;3.08;;;1.65;;
18649;SDS011;9454;53.516;10.478;2024-01-16T12:57:28;4.82;;;1.63;;
18649;SDS011;9454;53.516;10.478;2024-01-16T13:00:32;5.03;;;1.70;;
18649;SDS011;9454;53.516;10.478;2024-01-16T13:03:36;8.60;;;1.77;;
18649;SDS011;9454;53.516;10.478;2024-01-16T13:06:39;8.75;;;1.73;;
18649;SDS011;9454;53.516;10.478;2024-01-16T13:09:45;8.95;;;2.05;;
18649;SDS011;9454;53.516;10.478;2024-01-16T13:12:50;4.35;;;1.45;;
18649;SDS011;9454;53.516;10.478;2024-01-16T13:15:54;2.55;;;1.70;;
18649;SDS011;9454;53.516;10.478;2024-01-16T13:19:00;3.22;;;1.50;;
18649;SDS011;9454;53.516;10.478;2024-01-16T13:22:05;11.35;;;1.67;;
18649;SDS011;9454;53.516;10.478;2024-01-16T13:25:09;7.80;;;1.63;;
18649;SDS011;9454;53.516;10.478;2024-01-16T13:28:14;6.65;;;1.65;;
18649;SDS011;9454;53.516;10.478;2024-01-16T13:31:18;5.05;;;1.52;;
18649;SDS011;9454;53.516;10.478;2024-01-16T13:34:22;5.03;;;1.98;;
18649;SDS011;9454;53.516;10.478;2024-01-16T13:37:27;4.15;;;1.85;;
18649;SDS011;9454;53.516;10.478;2024-01-16T13:40:31;12.32;;;1.75;;
18649;SDS011;9454;53.516;10.478;2024-01-16T13:43:37;4.47;;;2.30;;
18649;SDS011;9454;53.516;10.478;2024-01-16T13:46:40;3.60;;;1.42;;
18649;SDS011;9454;53.516;10.478;2024-01-16T13:50:02;2.67;;;1.50;;
18649;SDS011;9454;53.516;10.478;2024-01-16T13:53:06;3.05;;;1.92;;
18649;SDS011;9454;53.516;10.478;2024-01-16T13:56:09;4.28;;;1.73;;
18649;SDS011;9454;53.516;10.478;2024-01-16T13:59:14;10.18;;;1.77;;
18649;SDS011;9454;53.516;10.478;2024-01-16T14:02:18;4.80;;;1.95;;
18649;SDS011;9454;53.516;10.478;2024-01-16T14:05:21;3.40;;;1.20;;
18649;SDS011;9454;53.516;10.478;2024-01-16T14:08:25;2.38;;;1.13;;
18649;SDS011;9454;53.516;10.478;2024-01-16T14:11:29;8.80;;;1.70;;
18649;SDS011;9454;53.516;10.478;2024-01-16T14:14:35;2.08;;;1.10;;
18649;SDS011;9454;53.516;10.478;2024-01-16T14:17:40;1.73;;;1.17;;
18649;SDS011;9454;53.516;10.478;2024-01-16T14:20:43;3.65;;;1.20;;
18649;SDS011;9454;53.516;10.478;2024-01-16T14:23:48;3.92;;;2.08;;
18649;SDS011;9454;53.516;10.478;2024-01-16T14:26:52;5.18;;;1.70;;
18649;SDS011;9454;53.516;10.478;2024-01-16T14:29:59;4.80;;;1.50;;
18649;SDS011;9454;53.516;10.478;2024-01-16T14:33:04;6.68;;;1.48;;
18649;SDS011;9454;53.516;10.478;2024-01-16T14:36:09;4.97;;;1.63;;
18649;SDS011;9454;53.516;10.478;2024-01-16T14:39:13;3.63;;;1.60;;
18649;SDS011;9454;53.516;10.478;2024-01-16T14:42:23;2.42;;;1.42;;
18649;SDS011;9454;53.516;10.478;2024-01-16T14:45:29;5.05;;;1.65;;
18649;SDS011;9454;53.516;10.478;2024-01-16T14:48:33;4.70;;;1.90;;
18649;SDS011;9454;53.516;10.478;2024-01-16T14:51:37;4.60;;;1.98;;
18649;SDS011;9454;53.516;10.478;2024-01-16T14:54:41;3.85;;;2.75;;
18649;SDS011;9454;53.516;10.478;2024-01-16T14:57:44;4.82;;;2.45;;
18649;SDS011;9454;53.516;10.478;2024-01-16T15:00:54;4.82;;;2.20;;
18649;SDS011;9454;53.516;10.478;2024-01-16T15:03:58;5.25;;;2.30;;
18649;SDS011;9454;53.516;10.478;2024-01-16T15:07:03;5.45;;;2.40;;
18649;SDS011;9454;53.516;10.478;2024-01-16T15:10:10;8.48;;;2.13;;
18649;SDS011;9454;53.516;10.478;2024-01-16T15:13:13;4.97;;;2.17;;
18649;SDS011;9454;53.516;10.478;2024-01-16T15:16:18;9.10;;;2.35;;
18649;SDS011;9454;53.516;10.478;2024-01-16T15:19:22;9.63;;;2.42;;
18649;SDS011;9454;53.516;10.478;2024-01-16T15:22:25;5.28;;;1.70;;
18649;SDS011;9454;53.516;10.478;2024-01-16T15:25:29;9.10;;;2.15;;
18649;SDS011;9454;53.516;10.478;2024-01-16T15:28:33;6.22;;;1.98;;
18649;SDS011;9454;53.516;10.478;2024-01-16T15:31:38;4.25;;;1.98;;
18649;SDS011;9454;53.516;10.478;2024-01-16T15:34:42;4.57;;;2.10;;
18649;SDS011;9454;53.516;10.478;2024-01-16T15:37:45;4.57;;;2.33;;
18649;SDS011;9454;53.516;10.478;2024-01-16T15:40:49;3.55;;;2.13;;
18649;SDS011;9454;53.516;10.478;2024-01-16T15:43:54;9.68;;;2.35;;
18649;SDS011;9454;53.516;10.478;2024-01-16T15:47:06;8.43;;;2.30;;
18649;SDS011;9454;53.516;10.478;2024-01-16T15:50:10;12.38;;;2.55;;
18649;SDS011;9454;53.516;10.478;2024-01-16T15:53:14;6.03;;;2.47;;
18649;SDS011;9454;53.516;10.478;2024-01-16T15:56:18;11.55;;;3.17;;
18649;SDS011;9454;53.516;10.478;2024-01-16T15:59:22;6.65;;;2.90;;
18649;SDS011;9454;53.516;10.478;2024-01-16T16:02:28;7.97;;;3.25;;
18649;SDS011;9454;53.516;10.478;2024-01-16T16:05:32;9.73;;;3.20;;
18649;SDS011;9454;53.516;10.478;2024-01-16T16:08:35;8.10;;;3.00;;
18649;SDS011;9454;53.516;10.478;2024-01-16T16:11:39;7.32;;;3.22;;
18649;SDS011;9454;53.516;10.478;2024-01-16T16:14:45;7.35;;;3.20;;
18649;SDS011;9454;53.516;10.478;2024-01-16T16:17:51;8.80;;;3.88;;
18649;SDS011;9454;53.516;10.478;2024-01-16T16:20:59;10.05;;;3.30;;
18649;SDS011;9454;53.516;10.478;2024-01-16T16:24:03;8.40;;;4.57;;
18649;SDS011;9454;53.516;10.478;2024-01-16T16:27:21;11.95;;;4.63;;
18649;SDS011;9454;53.516;10.478;2024-01-16T16:30:25;5.25;;;3.58;;
18649;SDS011;9454;53.516;10.478;2024-01-16T16:33:30;13.40;;;4.60;;
18649;SDS011;9454;53.516;10.478;2024-01-16T16:36:33;10.38;;;4.35;;
18649;SDS011;9454;53.516;10.478;2024-01-16T16:39:38;8.23;;;3.85;;
18649;SDS011;9454;53.516;10.478;2024-01-16T16:42:43;10.40;;;4.10;;
18649;SDS011;9454;53.516;10.478;2024-01-16T16:45:46;7.20;;;4.32;;
18649;SDS011;9454;53.516;10.478;2024-01-16T16:48:52;8.95;;;4.20;;
18649;SDS011;9454;53.516;10.478;2024-01-16T16:51:59;13.18;;;4.43;;
18649;SDS011;9454;53.516;10.478;2024-01-16T16:55:03;13.57;;;4.45;;
18649;SDS011;9454;53.516;10.478;2024-01-16T16:58:07;9.02;;;3.80;;
18649;SDS011;9454;53.516;10.478;2024-01-16T17:01:14;7.35;;;3.80;;
18649;SDS011;9454;53.516;10.478;2024-01-16T17:04:20;6.72;;;3.28;;
18649;SDS011;9454;53.516;10.478;2024-01-16T17:07:24;8.95;;;3.50;;
18649;SDS011;9454;53.516;10.478;2024-01-16T17:10:28;7.38;;;3.67;;
18649;SDS011;9454;53.516;10.478;2024-01-16T17:13:34;6.88;;;3.28;;
18649;SDS011;9454;53.516;10.478;2024-01-16T17:16:38;6.15;;;3.40;;
18649;SDS011;9454;53.516;10.478;2024-01-16T17:19:43;8.35;;;3.35;;
18649;SDS011;9454;53.516;10.478;2024-01-16T17:22:47;5.35;;;2.88;;
18649;SDS011;9454;53.516;10.478;2024-01-16T17:25:50;10.57;;;3.60;;
18649;SDS011;9454;53.516;10.478;2024-01-16T17:28:54;9.35;;;3.00;;
18649;SDS011;9454;53.516;10.478;2024-01-16T17:31:58;12.95;;;5.68;;
18649;SDS011;9454;53.516;10.478;2024-01-16T17:35:10;22.90;;;10.10;;
18649;SDS011;9454;53.516;10.478;2024-01-16T17:38:15;22.20;;;9.73;;
18649;SDS011;9454;53.516;10.478;2024-01-16T17:41:20;17.23;;;7.20;;
18649;SDS011;9454;53.516;10.478;2024-01-16T17:44:28;49.03;;;17.63;;
18649;SDS011;9454;53.516;10.478;2024-01-16T17:47:32;19.95;;;8.98;;
18649;SDS011;9454;53.516;10.478;2024-01-16T17:50:37;18.02;;;7.03;;
18649;SDS011;9454;53.516;10.478;2024-01-16T17:53:41;13.75;;;6.68;;
18649;SDS011;9454;53.516;10.478;2024-01-16T17:56:46;11.13;;;6.35;;
18649;SDS011;9454;53.516;10.478;2024-01-16T17:59:50;15.85;;;7.50;;
18649;SDS011;9454;53.516;10.478;2024-01-16T18:02:53;17.58;;;9.25;;
18649;SDS011;9454;53.516;10.478;2024-01-16T18:05:59;36.22;;;13.55;;
18649;SDS011;9454;53.516;10.478;2024-01-16T18:09:08;26.90;;;11.30;;
18649;SDS011;9454;53.516;10.478;2024-01-16T18:12:13;9.68;;;5.78;;
18649;SDS011;9454;53.516;10.478;2024-01-16T18:15:16;7.05;;;4.40;;
18649;SDS011;9454;53.516;10.478;2024-01-16T18:18:23;11.05;;;5.10;;
18649;SDS011;9454;53.516;10.478;2024-01-16T18:21:29;9.48;;;4.57;;
18649;SDS011;9454;53.516;10.478;2024-01-16T18:24:33;11.15;;;4.85;;
18649;SDS011;9454;53.516;10.478;2024-01-16T18:27:39;8.45;;;4.93;;
18649;SDS011;9454;53.516;10.478;2024-01-16T18:30:45;8.70;;;4.97;;
18649;SDS011;9454;53.516;10.478;2024-01-16T18:33:50;9.07;;;4.28;;
18649;SDS011;9454;53.516;10.478;2024-01-16T18:36:55;11.35;;;4.88;;
18649;SDS011;9454;53.516;10.478;2024-01-16T18:39:58;6.07;;;3.63;;
18649;SDS011;9454;53.516;10.478;2024-01-16T18:43:02;9.05;;;4.38;;